Time;durP1;ratioP1;P1;durP2;ratioP2;P2;SDS_P1;SDS_P2;PMS_P1;PMS_P2;Temp;Humidity;BMP_temperature;BMP_pressure;BME280_temperature;BME280_humidity;BME280_pressure;Samples;Min_cycle;Max_cycle;Signal;HPM_P1;HPM_P2
2022/05/07 00:00:38;;;;;;;117.07;68.90;;;10.40;99.90;;;;;;5016148;28;20494;-27
2022/05/07 00:03:04;;;;;;;118.13;67.25;;;10.60;99.90;;;;;;5012110;28;20042;-27
2022/05/07 00:05:31;;;;;;;120.93;67.75;;;10.50;99.90;;;;;;5031145;28;20049;-26
2022/05/07 00:07:57;;;;;;;109.65;63.33;;;10.50;99.90;;;;;;5014740;28;20092;-26
2022/05/07 00:10:23;;;;;;;122.85;69.28;;;10.60;99.90;;;;;;5015738;28;20165;-27
2022/05/07 00:12:49;;;;;;;113.82;64.88;;;10.60;99.90;;;;;;5014282;28;20058;-27
2022/05/07 00:15:15;;;;;;;112.63;65.35;;;10.60;99.90;;;;;;5014751;28;20057;-26
2022/05/07 00:20:25;;;;;;;127.55;67.88;;;10.80;99.90;;;;;;5014152;28;20046;-29
2022/05/07 00:22:51;;;;;;;132.57;67.90;;;10.80;99.90;;;;;;5015580;28;20046;-27
2022/05/07 00:25:17;;;;;;;123.50;68.88;;;10.80;99.90;;;;;;5014041;28;20124;-26
2022/05/07 00:27:42;;;;;;;138.02;70.78;;;10.80;99.90;;;;;;5016412;28;20056;-26
2022/05/07 00:30:08;;;;;;;125.97;68.47;;;10.80;99.90;;;;;;5015585;28;20038;-26
2022/05/07 00:32:34;;;;;;;127.28;71.45;;;10.90;99.90;;;;;;5015115;28;20497;-26
2022/05/07 00:35:00;;;;;;;134.77;72.18;;;11.00;99.90;;;;;;5019336;28;20068;-26
2022/05/07 00:37:26;;;;;;;120.57;69.32;;;11.00;99.90;;;;;;5015923;28;20053;-26
2022/05/07 00:39:52;;;;;;;123.93;67.05;;;11.00;99.90;;;;;;5015744;28;20180;-26
2022/05/07 00:42:19;;;;;;;118.53;67.65;;;11.10;99.90;;;;;;5015902;28;20045;-26
2022/05/07 00:44:46;;;;;;;116.50;64.00;;;11.10;99.90;;;;;;5014546;28;20046;-26
2022/05/07 00:47:12;;;;;;;106.57;59.70;;;11.10;99.90;;;;;;5015951;28;20049;-26
2022/05/07 00:49:38;;;;;;;113.55;64.32;;;11.10;99.90;;;;;;5013676;28;20054;-27
2022/05/07 00:52:05;;;;;;;115.13;66.28;;;11.10;99.90;;;;;;5014492;28;20180;-26
2022/05/07 00:54:31;;;;;;;107.72;62.10;;;11.20;99.90;;;;;;5013566;28;20517;-27
2022/05/07 00:56:57;;;;;;;97.32;62.22;;;11.20;99.90;;;;;;5015466;28;20136;-26
2022/05/07 00:59:23;;;;;;;105.13;58.97;;;11.40;99.90;;;;;;5015077;28;20038;-26
2022/05/07 01:01:49;;;;;;;109.82;63.40;;;11.30;99.90;;;;;;4997316;28;20054;-26
2022/05/07 01:04:16;;;;;;;102.07;60.08;;;11.30;99.90;;;;;;5028514;28;20065;-26
2022/05/07 01:06:42;;;;;;;104.05;57.90;;;11.20;99.90;;;;;;5034115;28;20037;-26
2022/05/07 01:09:08;;;;;;;93.10;55.22;;;11.20;99.90;;;;;;5032618;28;20067;-26
2022/05/07 01:11:34;;;;;;;118.35;60.13;;;11.20;99.90;;;;;;5014116;28;20049;-26
2022/05/07 01:14:01;;;;;;;94.72;58.60;;;11.10;99.50;;;;;;5014910;28;20089;-26
2022/05/07 01:16:27;;;;;;;96.57;58.00;;;11.20;95.60;;;;;;4998063;28;20061;-27
2022/05/07 01:18:52;;;;;;;104.20;60.38;;;11.10;94.00;;;;;;5026690;28;20049;-26
2022/05/07 01:21:18;;;;;;;106.22;62.85;;;11.20;93.90;;;;;;5018832;28;20474;-26
2022/05/07 01:23:47;;;;;;;98.63;58.63;;;11.10;94.20;;;;;;5013930;28;20222;-26
2022/05/07 01:26:13;;;;;;;110.95;62.83;;;11.20;95.10;;;;;;5014455;28;20096;-26
2022/05/07 01:28:40;;;;;;;100.78;59.72;;;11.20;94.60;;;;;;5013494;28;20053;-26
2022/05/07 01:31:07;;;;;;;113.93;64.63;;;11.10;97.60;;;;;;5013727;28;20108;-26
2022/05/07 01:33:34;;;;;;;103.18;60.22;;;11.10;99.90;;;;;;5019764;28;20054;-26
2022/05/07 01:36:01;;;;;;;105.10;58.35;;;11.10;99.90;;;;;;5017904;28;20386;-26
2022/05/07 01:38:28;;;;;;;101.95;58.72;;;11.30;99.90;;;;;;5032012;28;20046;-26
2022/05/07 01:40:53;;;;;;;88.38;55.22;;;11.30;99.90;;;;;;5034719;28;20069;-26
2022/05/07 01:43:19;;;;;;;105.18;57.95;;;11.20;99.90;;;;;;5032158;28;20485;-26
2022/05/07 01:45:45;;;;;;;100.63;58.13;;;11.20;99.90;;;;;;5022823;28;20056;-26
2022/05/07 01:48:11;;;;;;;92.50;56.35;;;11.20;99.90;;;;;;5012542;28;20104;-26
2022/05/07 01:50:39;;;;;;;103.65;56.22;;;11.30;99.90;;;;;;5013431;28;20115;-26
2022/05/07 01:53:09;;;;;;;99.72;58.00;;;11.30;99.90;;;;;;5012968;28;20481;-26
2022/05/07 01:55:35;;;;;;;95.32;53.17;;;11.30;99.90;;;;;;5015703;28;20041;-26
2022/05/07 01:58:02;;;;;;;83.15;49.38;;;11.30;99.90;;;;;;4997944;28;20464;-26
2022/05/07 02:00:29;;;;;;;94.60;54.00;;;11.40;99.90;;;;;;5014338;28;20048;-26
2022/05/07 02:02:55;;;;;;;93.63;53.40;;;11.40;99.90;;;;;;5013329;28;20096;-26
2022/05/07 02:05:22;;;;;;;83.53;51.53;;;11.40;99.90;;;;;;5012565;28;20624;-26
2022/05/07 02:07:47;;;;;;;91.47;52.75;;;11.40;99.90;;;;;;5013050;28;20093;-26
2022/05/07 02:10:13;;;;;;;92.93;53.25;;;11.40;99.90;;;;;;5012284;28;20049;-26
2022/05/07 02:12:39;;;;;;;82.82;48.10;;;11.50;99.90;;;;;;5013546;28;20065;-26
2022/05/07 02:15:06;;;;;;;82.55;48.97;;;11.30;99.90;;;;;;5014978;28;20168;-26
2022/05/07 02:17:31;;;;;;;83.63;50.25;;;11.30;99.90;;;;;;5014570;28;20076;-26
2022/05/07 02:19:57;;;;;;;87.72;50.70;;;11.40;99.90;;;;;;5012187;28;20042;-27
2022/05/07 02:22:23;;;;;;;77.60;48.95;;;11.50;99.90;;;;;;4995411;28;20123;-29
2022/05/07 02:24:50;;;;;;;79.72;47.80;;;11.40;99.90;;;;;;5027062;28;20053;-27
2022/05/07 02:27:16;;;;;;;76.45;47.33;;;11.30;99.90;;;;;;5014505;28;20396;-26
2022/05/07 02:29:41;;;;;;;73.80;46.08;;;11.40;99.90;;;;;;5012514;28;20054;-26
2022/05/07 02:32:07;;;;;;;93.43;51.38;;;11.40;99.90;;;;;;5014044;28;20050;-26
2022/05/07 02:34:34;;;;;;;85.32;49.95;;;11.30;99.90;;;;;;5025388;28;20049;-26
2022/05/07 02:37:01;;;;;;;73.47;45.92;;;11.30;99.90;;;;;;5019043;28;20092;-27
2022/05/07 02:39:27;;;;;;;81.78;48.88;;;11.30;99.90;;;;;;5012611;28;20100;-26
2022/05/07 02:44:37;;;;;;;89.78;51.70;;;11.30;99.90;;;;;;4998554;28;20054;-27
2022/05/07 02:47:04;;;;;;;77.53;48.08;;;11.40;99.90;;;;;;5013227;28;20042;-26
2022/05/07 02:49:34;;;;;;;75.53;48.33;;;11.30;99.90;;;;;;4996032;28;20125;-27
2022/05/07 02:52:00;;;;;;;79.47;45.63;;;11.40;99.90;;;;;;5013118;28;20045;-26
2022/05/07 02:54:26;;;;;;;77.50;46.53;;;11.30;99.90;;;;;;5012560;28;20054;-26
2022/05/07 02:56:52;;;;;;;77.88;48.10;;;11.40;99.90;;;;;;5013578;28;20045;-26
2022/05/07 02:59:18;;;;;;;77.03;47.72;;;11.40;99.90;;;;;;5018004;28;20507;-27
2022/05/07 03:01:43;;;;;;;81.15;50.28;;;11.40;99.90;;;;;;5017392;28;20516;-26
2022/05/07 03:04:09;;;;;;;92.60;52.90;;;11.30;99.90;;;;;;5017294;28;20081;-26
2022/05/07 03:06:36;;;;;;;74.10;44.50;;;11.20;99.90;;;;;;5017555;28;20424;-26
2022/05/07 03:09:03;;;;;;;83.85;50.60;;;11.20;99.90;;;;;;5016677;28;20524;-27
2022/05/07 03:11:29;;;;;;;86.35;50.83;;;11.20;99.90;;;;;;5017247;28;20455;-27
2022/05/07 03:13:54;;;;;;;85.20;50.42;;;11.20;99.90;;;;;;5017163;28;20176;-26
2022/05/07 03:16:20;;;;;;;75.38;49.05;;;11.20;99.30;;;;;;5016897;28;20069;-26
2022/05/07 03:18:46;;;;;;;82.60;48.90;;;11.10;97.60;;;;;;5016858;28;20508;-27
2022/05/07 03:21:11;;;;;;;87.82;51.85;;;11.10;95.40;;;;;;5017653;28;20512;-26
2022/05/07 03:23:37;;;;;;;92.47;52.35;;;11.10;93.50;;;;;;5015199;28;20204;-26
2022/05/07 03:26:03;;;;;;;95.00;53.60;;;11.00;90.50;;;;;;5016336;28;20049;-26
2022/05/07 03:28:29;;;;;;;111.35;56.58;;;10.90;85.20;;;;;;5024611;28;20058;-26
2022/05/07 03:30:55;;;;;;;85.70;50.92;;;11.00;85.20;;;;;;5025140;28;20048;-26
2022/05/07 03:33:21;;;;;;;100.22;51.75;;;10.80;82.50;;;;;;5020173;28;20068;-26
2022/05/07 03:35:47;;;;;;;74.40;44.97;;;10.90;85.60;;;;;;5016993;28;20084;-26
2022/05/07 03:38:13;;;;;;;115.53;56.20;;;10.60;87.70;;;;;;5015464;28;20448;-27
2022/05/07 03:40:39;;;;;;;80.95;49.47;;;10.70;93.80;;;;;;5016370;28;20046;-26
2022/05/07 03:43:05;;;;;;;87.68;51.83;;;10.60;99.90;;;;;;5022414;28;20060;-26
2022/05/07 03:45:32;;;;;;;78.82;49.63;;;10.50;99.90;;;;;;5026549;28;20050;-26
2022/05/07 03:47:59;;;;;;;81.68;51.70;;;10.60;99.90;;;;;;5015235;28;20054;-26
2022/05/07 03:50:25;;;;;;;84.03;51.75;;;10.60;99.90;;;;;;5016719;28;20038;-26
2022/05/07 03:53:35;;;;;;;86.75;53.42;;;10.60;99.90;;;;;;5017722;28;20050;-26
2022/05/07 03:55:41;;;;;;;88.70;52.53;;;10.70;99.90;;;;;;5019141;28;20064;-26
2022/05/07 03:58:17;;;;;;;102.53;56.45;;;10.70;99.90;;;;;;5015675;28;20057;-26
2022/05/07 04:00:43;;;;;;;94.13;56.92;;;10.60;99.90;;;;;;5016029;28;20042;-26
2022/05/07 04:03:12;;;;;;;114.47;61.03;;;10.70;99.90;;;;;;5015382;28;20125;-26
2022/05/07 04:05:39;;;;;;;100.97;55.22;;;10.70;99.90;;;;;;5019793;28;20046;-26
2022/05/07 04:08:05;;;;;;;106.85;60.88;;;10.70;99.90;;;;;;5031931;28;20080;-26
2022/05/07 04:10:31;;;;;;;87.43;51.45;;;10.70;99.90;;;;;;5032128;28;20046;-26
2022/05/07 04:12:56;;;;;;;84.55;49.78;;;10.70;99.90;;;;;;5016273;28;20061;-26
2022/05/07 04:15:23;;;;;;;87.32;51.40;;;10.70;99.90;;;;;;5014213;28;20374;-26
2022/05/07 04:17:49;;;;;;;96.15;53.35;;;10.70;99.90;;;;;;5015132;28;20077;-26
2022/05/07 04:20:15;;;;;;;88.20;53.47;;;10.80;99.90;;;;;;5013856;28;20050;-27
2022/05/07 04:22:41;;;;;;;96.57;54.10;;;10.70;99.90;;;;;;5017709;28;20188;-27
2022/05/07 04:25:08;;;;;;;94.85;56.50;;;10.70;99.90;;;;;;5035628;28;20084;-26
2022/05/07 04:27:35;;;;;;;84.47;54.60;;;10.70;99.90;;;;;;5033311;28;20509;-26
2022/05/07 04:30:01;;;;;;;85.53;53.40;;;10.80;99.90;;;;;;5034384;28;20374;-26
2022/05/07 04:32:27;;;;;;;82.30;52.30;;;10.90;99.90;;;;;;5034679;28;20095;-26
2022/05/07 04:34:57;;;;;;;90.68;55.33;;;10.90;99.90;;;;;;5034046;28;20045;-26
2022/05/07 04:37:23;;;;;;;86.97;54.55;;;11.00;99.90;;;;;;5033438;28;20049;-26
2022/05/07 04:39:49;;;;;;;74.00;50.00;;;11.10;99.90;;;;;;5030319;28;20037;-26
2022/05/07 04:42:16;;;;;;;75.43;52.85;;;11.20;99.90;;;;;;5015569;28;20045;-26
2022/05/07 04:44:42;;;;;;;81.18;51.88;;;11.20;99.90;;;;;;5015165;28;20100;-26
2022/05/07 04:47:07;;;;;;;84.35;52.53;;;11.30;99.90;;;;;;5021122;28;20444;-26
2022/05/07 04:49:35;;;;;;;80.55;51.33;;;11.30;99.90;;;;;;5034419;28;20041;-26
2022/05/07 04:52:01;;;;;;;78.95;52.05;;;11.30;99.90;;;;;;5034380;28;20088;-26
2022/05/07 04:54:26;;;;;;;81.43;51.03;;;11.30;99.90;;;;;;5017526;28;20080;-26
2022/05/07 04:56:52;;;;;;;84.47;54.35;;;11.40;99.90;;;;;;5014082;28;20056;-26
2022/05/07 04:59:19;;;;;;;74.25;48.58;;;11.40;99.90;;;;;;5014029;28;20042;-26
2022/05/07 05:01:46;;;;;;;76.53;49.22;;;11.50;99.90;;;;;;5013328;28;20509;-26
2022/05/07 05:04:12;;;;;;;67.63;44.08;;;11.50;99.90;;;;;;5013467;28;20545;-27
2022/05/07 05:06:38;;;;;;;70.82;48.83;;;11.50;99.90;;;;;;5014880;28;20124;-26
2022/05/07 05:09:06;;;;;;;66.22;47.10;;;11.60;99.90;;;;;;5009641;28;20037;-26
2022/05/07 05:11:32;;;;;;;57.42;42.03;;;11.60;99.90;;;;;;5022177;28;20135;-26
2022/05/07 05:13:58;;;;;;;62.20;45.33;;;11.70;99.90;;;;;;4974496;28;1115345;-27
2022/05/07 05:16:23;;;;;;;64.88;45.22;;;11.90;99.90;;;;;;5015575;28;20137;-26
2022/05/07 05:18:49;;;;;;;64.53;45.15;;;12.00;99.90;;;;;;5014653;28;20046;-26
2022/05/07 05:21:15;;;;;;;66.32;45.80;;;11.80;99.90;;;;;;5013542;28;20108;-26
2022/05/07 05:23:41;;;;;;;67.43;45.63;;;11.90;99.90;;;;;;5014006;28;20121;-26
2022/05/07 05:26:07;;;;;;;66.55;47.42;;;12.00;99.90;;;;;;5014392;28;20046;-27
2022/05/07 05:28:35;;;;;;;59.20;44.60;;;12.00;99.90;;;;;;5014168;28;20050;-26
2022/05/07 05:31:02;;;;;;;61.72;43.55;;;12.10;99.90;;;;;;5015392;28;20046;-26
2022/05/07 05:33:27;;;;;;;66.45;46.88;;;12.20;99.90;;;;;;5013843;28;20463;-27
2022/05/07 05:35:53;;;;;;;63.55;46.42;;;12.10;99.90;;;;;;5018613;28;20121;-26
2022/05/07 05:38:19;;;;;;;65.85;46.50;;;12.30;99.90;;;;;;5015042;28;20053;-26
2022/05/07 05:40:44;;;;;;;59.35;43.47;;;12.30;99.90;;;;;;5015113;28;20397;-26
2022/05/07 05:43:10;;;;;;;62.78;46.50;;;12.40;99.90;;;;;;5012756;28;20388;-25
2022/05/07 05:45:37;;;;;;;64.65;46.10;;;12.60;99.90;;;;;;5013911;28;20045;-27
2022/05/07 05:48:04;;;;;;;68.18;45.53;;;12.60;99.90;;;;;;5013700;28;20052;-26
2022/05/07 05:50:30;;;;;;;65.80;46.67;;;12.90;99.90;;;;;;5015120;28;20042;-27
2022/05/07 05:52:57;;;;;;;53.97;40.35;;;13.20;99.90;;;;;;5014433;28;20052;-26
2022/05/07 05:55:23;;;;;;;54.55;41.70;;;13.40;99.90;;;;;;5013402;28;20401;-25
2022/05/07 05:57:49;;;;;;;49.08;37.63;;;13.60;97.40;;;;;;5016883;28;20048;-26
2022/05/07 06:00:16;;;;;;;46.53;37.30;;;13.80;51.60;;;;;;5025594;28;20080;-26
2022/05/07 06:02:45;;;;;;;47.33;38.85;;;14.00;1.00;;;;;;5023945;28;20052;-25
2022/05/07 06:05:16;;;;;;;45.97;33.40;;;14.10;1.00;;;;;;4989578;28;20046;-25
2022/05/07 06:07:42;;;;;;;49.05;34.83;;;14.30;1.00;;;;;;5014556;28;20483;-26
2022/05/07 06:10:08;;;;;;;39.40;32.97;;;14.50;1.00;;;;;;5014294;28;20085;-25
2022/05/07 06:12:34;;;;;;;41.50;32.28;;;14.60;99.90;;;;;;5014558;28;20400;-25
2022/05/07 06:15:00;;;;;;;37.20;31.92;;;14.70;99.90;;;;;;5014717;28;20065;-25
2022/05/07 06:17:25;;;;;;;37.42;33.03;;;14.80;99.90;;;;;;5013493;28;20046;-25
2022/05/07 06:19:52;;;;;;;35.33;29.58;;;15.00;99.90;;;;;;5029158;28;20038;-25
2022/05/07 06:22:18;;;;;;;36.70;29.75;;;15.00;99.90;;;;;;5014490;28;20045;-25
2022/05/07 06:27:28;;;;;;;34.38;29.15;;;15.10;1.00;;;;;;5014124;28;20054;-25
2022/05/07 06:30:02;;;;;;;30.20;26.23;;;15.10;1.00;;;;;;5013952;28;20038;-25
2022/05/07 06:32:35;;;;;;;37.95;27.85;;;15.10;99.90;;;;;;5014348;28;20443;-25
2022/05/07 06:35:04;;;;;;;35.15;29.63;;;15.20;99.90;;;;;;5012430;28;20038;-25
2022/05/07 06:37:35;;;;;;;32.42;27.75;;;15.40;99.90;;;;;;4997344;28;20128;-25
2022/05/07 06:40:03;;;;;;;31.67;27.33;;;15.40;99.90;;;;;;5013788;28;20042;-25
2022/05/07 06:42:29;;;;;;;27.75;24.90;;;15.50;99.90;;;;;;5013142;28;20107;-26
2022/05/07 06:44:55;;;;;;;34.53;27.90;;;15.50;22.50;;;;;;5015121;28;20124;-25
2022/05/07 06:47:21;;;;;;;34.08;28.70;;;15.50;1.00;;;;;;5013041;28;20153;-26
2022/05/07 06:49:46;;;;;;;37.22;30.27;;;15.50;1.00;;;;;;5013076;28;20121;-25
2022/05/07 06:52:12;;;;;;;37.15;30.45;;;15.40;1.00;;;;;;5012122;28;20054;-25
2022/05/07 06:54:38;;;;;;;36.55;29.55;;;15.50;7.80;;;;;;4996348;28;20057;-25
2022/05/07 06:57:04;;;;;;;36.45;30.00;;;15.40;1.00;;;;;;5013199;28;20048;-25
2022/05/07 06:59:31;;;;;;;30.40;25.45;;;15.50;1.00;;;;;;5013299;28;20126;-25
2022/05/07 07:01:57;;;;;;;32.50;28.70;;;15.50;1.00;;;;;;5016836;28;20065;-26
2022/05/07 07:04:24;;;;;;;35.65;30.13;;;15.60;1.00;;;;;;5028359;28;20048;-25
2022/05/07 07:06:50;;;;;;;34.95;29.63;;;15.80;1.00;;;;;;5013098;28;20089;-25
2022/05/07 07:09:16;;;;;;;34.97;29.13;;;16.00;1.00;;;;;;5013066;28;20069;-25
2022/05/07 07:11:42;;;;;;;39.17;33.03;;;16.10;1.00;;;;;;5021454;28;20057;-25
2022/05/07 07:14:07;;;;;;;39.38;29.75;;;16.30;1.00;;;;;;5019870;28;20054;-28
2022/05/07 07:16:33;;;;;;;35.40;29.05;;;16.40;1.00;;;;;;5018116;28;20053;-26
2022/05/07 07:18:59;;;;;;;38.25;30.15;;;16.70;1.00;;;;;;5017377;28;20049;-26
2022/05/07 07:21:24;;;;;;;43.35;33.53;;;16.70;1.00;;;;;;5018024;28;20100;-26
2022/05/07 07:23:50;;;;;;;45.72;34.38;;;16.90;1.00;;;;;;5033184;28;20404;-26
2022/05/07 07:26:17;;;;;;;48.08;36.53;;;16.80;1.00;;;;;;5018976;28;20053;-26
2022/05/07 07:28:43;;;;;;;43.88;35.30;;;16.70;1.00;;;;;;5029901;28;20042;-25
2022/05/07 07:31:08;;;;;;;57.53;43.85;;;16.60;1.00;;;;;;5013372;28;20053;-26
2022/05/07 07:33:35;;;;;;;54.22;40.78;;;16.50;1.00;;;;;;5013944;28;20042;-26
2022/05/07 07:36:01;;;;;;;61.20;44.97;;;16.50;1.00;;;;;;5012611;28;20068;-26
2022/05/07 07:38:27;;;;;;;64.30;46.05;;;16.40;1.00;;;;;;5013262;28;20482;-26
2022/05/07 07:40:53;;;;;;;59.13;45.92;;;16.30;1.00;;;;;;5018980;28;20042;-26
2022/05/07 07:43:20;;;;;;;56.08;43.05;;;16.20;1.00;;;;;;5014344;28;20043;-26
2022/05/07 07:48:31;;;;;;;62.20;43.80;;;16.00;1.00;;;;;;5016875;28;20049;-26
2022/05/07 07:50:57;;;;;;;57.65;43.15;;;15.90;1.00;;;;;;5017084;28;20053;-27
2022/05/07 07:53:24;;;;;;;60.38;44.53;;;15.90;2.00;;;;;;5022081;28;20041;-26
2022/05/07 07:55:51;;;;;;;69.13;46.85;;;15.90;42.80;;;;;;5035337;28;20046;-25
2022/05/07 07:58:17;;;;;;;66.60;49.38;;;15.60;99.90;;;;;;5035131;28;20053;-24
2022/05/07 08:00:46;;;;;;;65.15;45.55;;;15.40;99.90;;;;;;5020751;28;20440;-25
2022/05/07 08:03:14;;;;;;;71.03;50.15;;;15.30;99.90;;;;;;5036342;28;20041;-25
2022/05/07 08:05:41;;;;;;;76.47;50.20;;;15.20;99.90;;;;;;5024905;28;20046;-25
2022/05/07 08:13:37;;;;;;;67.80;49.10;;;14.90;99.90;;;;;;5016681;28;20049;-25
2022/05/07 08:16:04;;;;;;;69.38;47.90;;;14.80;99.90;;;;;;5016342;28;20421;-24
2022/05/07 08:18:30;;;;;;;69.25;48.35;;;14.90;99.90;;;;;;5016801;28;20050;-24
2022/05/07 08:20:57;;;;;;;68.72;48.70;;;14.80;1.00;;;;;;5015261;28;20046;-25
2022/05/07 08:23:25;;;;;;;75.78;48.83;;;14.90;1.00;;;;;;5015527;28;20050;-24
2022/05/07 08:25:51;;;;;;;65.80;46.95;;;15.40;1.00;;;;;;5016200;28;20053;-24
2022/05/07 08:28:17;;;;;;;68.22;47.53;;;15.40;1.00;;;;;;5016904;28;20128;-24
2022/05/07 08:30:43;;;;;;;64.07;47.35;;;15.60;1.00;;;;;;5015603;28;20389;-24
2022/05/07 08:33:09;;;;;;;67.93;45.97;;;15.70;1.00;;;;;;4998532;28;20112;-24
2022/05/07 08:35:35;;;;;;;67.28;45.15;;;16.00;1.00;;;;;;5015950;28;20046;-24
2022/05/07 08:38:01;;;;;;;66.50;45.97;;;15.80;99.90;;;;;;5016723;28;20053;-25
2022/05/07 08:40:27;;;;;;;65.85;45.70;;;16.00;99.90;;;;;;5016025;28;20401;-25
2022/05/07 08:42:54;;;;;;;62.22;44.17;;;15.90;99.90;;;;;;5016418;28;20379;-25
2022/05/07 08:45:20;;;;;;;65.57;46.45;;;16.10;99.90;;;;;;5015754;28;20049;-25
2022/05/07 08:47:46;;;;;;;62.67;44.40;;;16.00;99.90;;;;;;5015718;28;20577;-25
2022/05/07 08:50:13;;;;;;;70.45;49.33;;;15.90;99.90;;;;;;5015699;28;20115;-25
2022/05/07 08:52:42;;;;;;;61.58;44.28;;;16.00;99.90;;;;;;5015632;28;20065;-25
2022/05/07 08:55:12;;;;;;;57.13;40.83;;;16.00;99.90;;;;;;5014284;28;20048;-26
2022/05/07 08:57:39;;;;;;;56.20;41.05;;;16.10;99.90;;;;;;5015528;28;20451;-26
2022/05/07 09:00:07;;;;;;;61.30;43.13;;;16.20;99.90;;;;;;5015434;28;20045;-26
2022/05/07 09:02:48;;;;;;;59.58;41.83;;;16.20;99.90;;;;;;5015023;28;20070;-26
2022/05/07 09:05:19;;;;;;;60.30;42.70;;;16.30;99.90;;;;;;5014674;28;20050;-26
2022/05/07 09:07:52;;;;;;;56.13;41.25;;;16.30;99.90;;;;;;5014789;28;20394;-26
2022/05/07 09:10:19;;;;;;;53.88;40.40;;;16.40;99.90;;;;;;5015349;28;20118;-26
2022/05/07 09:12:45;;;;;;;51.83;38.42;;;16.60;99.90;;;;;;5013661;28;20516;-26
2022/05/07 09:15:11;;;;;;;48.58;35.50;;;16.50;99.90;;;;;;5015169;28;20049;-26
2022/05/07 09:17:37;;;;;;;55.00;39.53;;;16.50;92.10;;;;;;5015187;28;20112;-26
2022/05/07 09:20:14;;;;;;;55.38;37.55;;;16.60;63.90;;;;;;5013814;28;20046;-26
2022/05/07 09:22:55;;;;;;;52.33;38.63;;;16.70;1.00;;;;;;5013854;28;20489;-26
2022/05/07 09:25:21;;;;;;;46.00;35.75;;;17.00;37.40;;;;;;5015046;28;20058;-27
2022/05/07 09:27:48;;;;;;;43.97;32.47;;;17.10;1.00;;;;;;5014964;28;20046;-26
2022/05/07 09:30:21;;;;;;;41.55;32.83;;;17.20;1.00;;;;;;5015163;28;20390;-26
2022/05/07 09:32:50;;;;;;;46.85;34.28;;;17.50;1.00;;;;;;5015478;28;20115;-26
2022/05/07 09:38:02;;;;;;;42.42;32.53;;;17.60;99.90;;;;;;5015351;28;20132;-26
2022/05/07 09:40:28;;;;;;;48.30;31.98;;;17.90;99.90;;;;;;5015213;28;20045;-27
2022/05/07 09:42:58;;;;;;;49.55;34.65;;;18.10;99.90;;;;;;5013798;28;20042;-27
2022/05/07 09:45:27;;;;;;;48.13;34.47;;;18.40;99.90;;;;;;5013469;28;20046;-27
2022/05/07 09:48:00;;;;;;;49.58;34.85;;;18.50;99.90;;;;;;5014667;28;20088;-26
2022/05/07 09:58:38;;;;;;;52.13;36.38;;;19.00;99.90;;;;;;5014487;28;20133;-26
2022/05/07 10:01:25;;;;;;;49.75;35.63;;;18.80;99.90;;;;;;5014351;28;20081;-27
2022/05/07 10:04:28;;;;;;;45.80;33.47;;;18.50;99.90;;;;;;5014376;28;20053;-27
2022/05/07 10:07:31;;;;;;;52.47;40.40;;;18.40;99.90;;;;;;5014019;28;20437;-27
2022/05/07 10:10:25;;;;;;;65.00;45.50;;;18.00;99.90;;;;;;5014328;28;20050;-26
2022/05/07 10:12:55;;;;;;;65.45;46.97;;;17.80;99.90;;;;;;5013960;28;20058;-26
2022/05/07 10:15:23;;;;;;;59.05;43.17;;;17.90;99.90;;;;;;5013709;28;20042;-27
2022/05/07 10:18:14;;;;;;;62.00;44.20;;;17.80;99.90;;;;;;5014113;28;20081;-26
2022/05/07 10:20:44;;;;;;;63.58;42.78;;;17.60;99.90;;;;;;5014666;28;20057;-26
2022/05/07 10:23:15;;;;;;;62.15;43.60;;;17.80;99.90;;;;;;5014632;28;20046;-27
2022/05/07 10:25:43;;;;;;;56.70;40.22;;;17.90;99.90;;;;;;5013747;28;20520;-26
2022/05/07 10:28:13;;;;;;;60.97;42.13;;;18.10;99.90;;;;;;5013044;28;20101;-27
2022/05/07 10:30:54;;;;;;;66.45;45.97;;;18.10;99.90;;;;;;5013383;28;20076;-26
2022/05/07 10:33:21;;;;;;;58.03;41.75;;;18.10;99.90;;;;;;5012969;28;20073;-27
2022/05/07 10:35:52;;;;;;;55.20;41.30;;;18.10;99.90;;;;;;5014528;28;20466;-26
2022/05/07 10:38:33;;;;;;;57.88;42.33;;;17.80;99.90;;;;;;5013177;28;20062;-26
2022/05/07 10:41:09;;;;;;;54.50;39.75;;;17.40;99.90;;;;;;5013513;28;20042;-26
2022/05/07 10:43:40;;;;;;;54.72;40.97;;;17.50;99.90;;;;;;5013853;28;20042;-26
2022/05/07 10:46:07;;;;;;;50.67;37.83;;;17.40;99.90;;;;;;5012872;28;20052;-26
2022/05/07 10:48:50;;;;;;;45.97;34.97;;;17.70;99.90;;;;;;5013752;28;20540;-27
2022/05/07 10:51:39;;;;;;;48.47;35.40;;;17.90;99.90;;;;;;5013832;28;20108;-26
2022/05/07 10:54:22;;;;;;;46.25;32.80;;;18.10;99.90;;;;;;5013660;28;20053;-27
2022/05/07 10:56:50;;;;;;;47.55;32.42;;;18.30;99.90;;;;;;5013311;28;20401;-27
2022/05/07 10:59:17;;;;;;;43.70;31.70;;;18.40;99.90;;;;;;5013602;28;20046;-27
2022/05/07 11:01:43;;;;;;;42.15;31.90;;;18.50;99.90;;;;;;5013672;28;20050;-26
2022/05/07 11:04:12;;;;;;;39.28;28.75;;;18.70;99.90;;;;;;5012680;28;20133;-28
2022/05/07 11:06:43;;;;;;;33.33;25.35;;;18.80;99.90;;;;;;5013608;28;20060;-26
2022/05/07 11:09:23;;;;;;;33.20;24.80;;;18.50;60.10;;;;;;5012616;28;20054;-26
2022/05/07 11:11:52;;;;;;;25.75;19.52;;;18.50;1.00;;;;;;5014171;28;20046;-27
2022/05/07 11:14:28;;;;;;;21.20;15.82;;;18.20;42.90;;;;;;5011941;28;20058;-27
2022/05/07 11:16:55;;;;;;;16.08;11.38;;;18.20;39.70;;;;;;5014156;28;20481;-26
2022/05/07 11:19:29;;;;;;;12.20;8.90;;;18.10;64.70;;;;;;5017039;28;20536;-26
2022/05/07 11:21:56;;;;;;;10.88;8.38;;;17.90;74.70;;;;;;5017676;28;20046;-26
2022/05/07 11:24:25;;;;;;;12.98;8.20;;;18.00;99.90;;;;;;5017844;28;20049;-27
2022/05/07 11:26:55;;;;;;;11.35;7.80;;;18.00;99.90;;;;;;5017240;28;20038;-27
2022/05/07 11:29:21;;;;;;;10.20;8.10;;;18.00;96.70;;;;;;5017723;28;20041;-27
2022/05/07 11:32:08;;;;;;;11.77;9.23;;;17.80;99.90;;;;;;5017151;28;20092;-26
2022/05/07 11:34:39;;;;;;;12.75;10.18;;;17.90;99.90;;;;;;5017777;28;20050;-26
2022/05/07 11:37:21;;;;;;;13.13;9.85;;;17.80;99.90;;;;;;5017693;28;20095;-27
2022/05/07 11:39:57;;;;;;;15.30;10.25;;;18.10;99.90;;;;;;5017829;28;20042;-27
2022/05/07 11:42:39;;;;;;;12.45;10.35;;;18.20;99.90;;;;;;5017602;28;20358;-26
2022/05/07 11:45:30;;;;;;;14.80;10.52;;;18.30;64.10;;;;;;5017749;28;20038;-26
2022/05/07 11:48:06;;;;;;;15.93;10.35;;;17.80;19.70;;;;;;5016950;28;20145;-28
2022/05/07 11:50:39;;;;;;;14.10;9.60;;;18.10;99.90;;;;;;5016893;28;20052;-26
2022/05/07 11:53:29;;;;;;;15.15;10.88;;;18.10;92.20;;;;;;5016128;28;20050;-29
2022/05/07 11:56:11;;;;;;;12.77;10.35;;;18.40;10.40;;;;;;5027793;28;20049;-27
2022/05/07 11:58:42;;;;;;;14.02;10.77;;;18.60;47.40;;;;;;5019894;28;20513;-28
2022/05/07 12:01:30;;;;;;;14.15;10.18;;;18.90;19.70;;;;;;5023855;28;20124;-26
2022/05/07 12:04:10;;;;;;;13.63;10.70;;;19.20;1.00;;;;;;5019585;28;20041;-26
2022/05/07 12:06:36;;;;;;;14.35;9.13;;;19.10;1.00;;;;;;5018660;28;20493;-26
2022/05/07 12:09:13;;;;;;;11.85;9.70;;;18.90;1.00;;;;;;5021878;28;20092;-27
2022/05/07 12:11:42;;;;;;;14.38;10.88;;;18.90;1.00;;;;;;5019142;28;20464;-27
2022/05/07 12:14:09;;;;;;;13.25;9.23;;;18.80;1.00;;;;;;5036969;28;20063;-27
2022/05/07 12:19:34;;;;;;;14.13;11.15;;;18.90;1.00;;;;;;5023256;28;20473;-26
2022/05/07 12:30:13;;;;;;;20.35;15.32;;;18.70;61.20;;;;;;5021801;28;20047;-27
2022/05/07 12:32:44;;;;;;;23.15;16.95;;;18.30;9.10;;;;;;5022865;28;20041;-27
2022/05/07 12:35:13;;;;;;;19.52;14.35;;;17.90;26.80;;;;;;5017225;28;20053;-27
2022/05/07 12:37:39;;;;;;;24.60;18.30;;;17.70;57.80;;;;;;5018354;28;20051;-27
2022/05/07 12:40:11;;;;;;;22.88;17.58;;;17.80;99.90;;;;;;4998411;28;20037;-27
2022/05/07 12:42:37;;;;;;;18.80;14.63;;;18.00;99.90;;;;;;5022623;28;20058;-26
2022/05/07 12:45:03;;;;;;;18.92;13.68;;;18.70;77.30;;;;;;5017583;28;20045;-26
2022/05/07 12:47:29;;;;;;;21.92;16.98;;;19.10;1.00;;;;;;5017928;28;20085;-27
2022/05/07 12:49:55;;;;;;;18.33;14.63;;;18.80;19.60;;;;;;5015207;28;20049;-27
2022/05/07 12:52:22;;;;;;;14.95;11.43;;;19.10;24.70;;;;;;5019590;28;20068;-27
2022/05/07 12:54:48;;;;;;;14.95;10.88;;;19.20;1.00;;;;;;5021289;28;20046;-27
2022/05/07 12:57:14;;;;;;;13.32;10.40;;;19.50;1.00;;;;;;5020450;28;20107;-28
2022/05/07 12:59:43;;;;;;;11.50;8.95;;;;;;;;;;5017036;28;20041;-29
2022/05/07 13:02:13;;;;;;;12.93;8.07;;;20.50;1.00;;;;;;5018411;28;20045;-27
2022/05/07 13:04:38;;;;;;;9.63;8.63;;;20.40;1.00;;;;;;5019516;28;20084;-27
2022/05/07 13:07:04;;;;;;;8.90;7.65;;;20.80;1.00;;;;;;5017561;28;20076;-27
2022/05/07 13:09:30;;;;;;;8.55;7.75;;;21.00;99.90;;;;;;5020678;28;20120;-27
2022/05/07 13:11:57;;;;;;;8.35;7.47;;;21.00;99.90;;;;;;5022482;28;20433;-28